Time;durP1;ratioP1;P1;durP2;ratioP2;P2;SDS_P1;SDS_P2;PMS_P1;PMS_P2;Temp;Humidity;BMP_temperature;BMP_pressure;BME280_temperature;BME280_humidity;BME280_pressure;Samples;Min_cycle;Max_cycle;Signal;HPM_P1;HPM_P2
2022/06/28 00:00:14;;;;;;;;;5.75;3.25;;;;;19.40;45.87;101506.47;5032499;28;45659;-53
2022/06/28 00:02:39;;;;;;;;;2.00;2.00;;;;;19.35;47.33;101504.06;5037224;28;45403;-54
2022/06/28 00:05:05;;;;;;;;;3.75;2.00;;;;;19.33;47.29;101511.25;5012373;28;45339;-52
2022/06/28 00:07:31;;;;;;;;;5.75;2.75;;;;;19.32;46.52;101505.09;5032637;28;45215;-54
2022/06/28 00:09:56;;;;;;;;;2.50;1.25;;;;;19.32;47.37;101499.78;5031158;28;45359;-54
2022/06/28 00:12:22;;;;;;;;;3.00;1.00;;;;;19.30;46.49;101501.66;5026428;28;45547;-53
2022/06/28 00:17:31;;;;;;;;;3.75;2.25;;;;;19.29;47.64;101501.72;5035534;28;45410;-53
2022/06/28 00:19:57;;;;;;;;;2.25;2.25;;;;;19.29;47.09;101497.28;5030434;28;47739;-51
2022/06/28 00:22:22;;;;;;;;;4.00;2.25;;;;;19.27;47.31;101491.19;5027333;28;45399;-51
2022/06/28 00:24:47;;;;;;;;;2.00;2.00;;;;;19.26;47.70;101489.47;5038729;28;45470;-47
2022/06/28 00:27:13;;;;;;;;;2.00;2.00;;;;;19.25;47.39;101493.06;5033218;28;68464;-49
2022/06/28 00:29:38;;;;;;;;;1.75;1.50;;;;;19.25;47.57;101494.88;5035466;28;45419;-52
2022/06/28 00:32:05;;;;;;;;;2.00;1.00;;;;;19.22;47.17;101495.03;5038508;28;67297;-48
2022/06/28 00:34:30;;;;;;;;;1.00;1.00;;;;;19.18;47.05;101496.13;5035128;28;45619;-49
2022/06/28 00:36:56;;;;;;;;;3.75;1.00;;;;;19.15;47.76;101497.97;5031623;28;61831;-47
2022/06/28 00:39:21;;;;;;;;;3.50;2.50;;;;;19.11;47.25;101493.78;5036827;28;48391;-49
2022/06/28 00:41:46;;;;;;;;;2.00;2.00;;;;;19.09;47.79;101498.31;5036717;28;45431;-53
2022/06/28 00:44:12;;;;;;;;;2.00;2.00;;;;;19.08;48.66;101498.38;5031713;28;57068;-50
2022/06/28 00:46:38;;;;;;;;;1.00;1.00;;;;;19.07;48.35;101502.84;5037095;28;45542;-49
2022/06/28 00:49:04;;;;;;;;;1.00;1.00;;;;;19.07;48.65;101486.91;5039927;28;48357;-48
2022/06/28 00:51:30;;;;;;;;;3.00;2.00;;;;;19.04;48.33;101491.53;5032515;28;45641;-50
2022/06/28 00:53:56;;;;;;;;;3.00;1.75;;;;;19.02;48.81;101491.59;5037859;28;45563;-51
2022/06/28 00:56:21;;;;;;;;;2.50;1.50;;;;;19.01;48.10;101489.00;5036405;28;45455;-51
2022/06/28 00:58:47;;;;;;;;;4.00;1.00;;;;;19.01;48.43;101489.00;5036179;28;45337;-53
2022/06/28 01:01:12;;;;;;;;;2.75;1.50;;;;;19.02;48.06;101490.75;5039104;28;46068;-53
2022/06/28 01:03:38;;;;;;;;;3.00;1.50;;;;;18.99;48.27;101491.75;5034475;28;59658;-51
2022/06/28 01:06:03;;;;;;;;;0.50;0.00;;;;;18.97;47.69;101489.16;5036278;28;60947;-49
2022/06/28 01:08:29;;;;;;;;;1.00;1.00;;;;;18.96;47.98;101489.22;5032707;28;46521;-54
2022/06/28 01:10:54;;;;;;;;;1.00;1.00;;;;;18.96;48.36;101491.88;5036114;28;54287;-51
2022/06/28 01:13:20;;;;;;;;;3.25;1.00;;;;;18.96;47.79;101494.53;5032644;28;53714;-50
2022/06/28 01:15:45;;;;;;;;;4.75;1.00;;;;;18.94;48.07;101491.09;5034829;28;45638;-49
2022/06/28 01:18:11;;;;;;;;;1.25;1.00;;;;;18.92;48.28;101490.34;5035298;28;71988;-50
2022/06/28 01:20:36;;;;;;;;;1.25;1.25;;;;;18.89;47.60;101483.41;5033800;28;45479;-51
2022/06/28 01:23:02;;;;;;;;;1.50;1.00;;;;;18.86;48.39;101483.53;5035304;28;45384;-52
2022/06/28 01:25:28;;;;;;;;;4.00;2.00;;;;;18.82;48.15;101481.97;5036922;28;45530;-52
2022/06/28 01:27:54;;;;;;;;;3.00;1.00;;;;;18.82;48.29;101484.59;5018120;28;45600;-53
2022/06/28 01:30:21;;;;;;;;;1.00;1.00;;;;;18.81;48.45;101493.50;5035414;28;45280;-53
2022/06/28 01:32:46;;;;;;;;;4.00;1.00;;;;;18.81;48.90;101492.63;5019834;28;45449;-51
2022/06/28 01:35:12;;;;;;;;;1.00;1.00;;;;;18.78;48.51;101488.31;5038128;28;45235;-53
2022/06/28 01:37:38;;;;;;;;;3.00;1.75;;;;;18.78;48.77;101489.19;5036517;28;47231;-52
2022/06/28 01:40:04;;;;;;;;;2.75;1.50;;;;;18.76;48.63;101482.25;5038904;28;45435;-49
2022/06/28 01:42:31;;;;;;;;;2.25;1.00;;;;;18.73;49.49;101482.38;5035056;28;45391;-49
2022/06/28 01:44:57;;;;;;;;;0.50;0.50;;;;;18.70;50.07;101486.06;5038237;28;45537;-52
2022/06/28 01:47:25;;;;;;;;;1.25;1.00;;;;;18.67;49.04;101480.91;5029729;28;46309;-50
2022/06/28 01:49:51;;;;;;;;;1.00;1.00;;;;;18.66;48.51;101486.28;5034002;28;45653;-51
2022/06/28 01:52:17;;;;;;;;;1.50;1.00;;;;;18.63;48.18;101489.06;5035855;28;46572;-50
2022/06/28 01:54:43;;;;;;;;;4.00;1.25;;;;;18.59;49.03;101488.34;5034694;28;45514;-52
2022/06/28 01:57:08;;;;;;;;;2.00;1.00;;;;;18.57;49.22;101484.94;5052113;28;48666;-52
2022/06/28 01:59:34;;;;;;;;;1.00;1.00;;;;;18.56;48.45;101486.72;5033884;28;45442;-50
2022/06/28 02:02:00;;;;;;;;;1.00;1.00;;;;;18.52;48.54;101479.00;5036457;28;45442;-50
2022/06/28 02:04:27;;;;;;;;;2.50;1.00;;;;;18.52;49.24;101479.88;5035068;28;70367;-52
2022/06/28 02:06:53;;;;;;;;;0.75;0.75;;;;;18.51;49.14;101472.84;5032555;28;47082;-52
2022/06/28 02:09:18;;;;;;;;;1.50;1.50;;;;;18.50;49.52;101468.50;5036909;28;46056;-49
2022/06/28 02:11:44;;;;;;;;;3.00;1.00;;;;;18.49;49.28;101473.88;5028540;28;45198;-51
2022/06/28 02:14:09;;;;;;;;;3.00;1.00;;;;;18.47;49.38;101471.28;5033800;28;45342;-50
2022/06/28 02:16:35;;;;;;;;;2.50;1.50;;;;;18.45;49.22;101467.84;5027334;28;71256;-54
2022/06/28 02:19:01;;;;;;;;;2.75;1.00;;;;;18.43;48.81;101475.00;5034306;28;46822;-48
2022/06/28 02:21:26;;;;;;;;;3.25;0.00;;;;;18.40;49.42;101465.41;5030829;28;45340;-52
2022/06/28 02:23:51;;;;;;;;;1.25;1.00;;;;;18.40;49.23;101465.41;5036018;28;51962;-50
2022/06/28 02:26:17;;;;;;;;;0.75;0.75;;;;;18.39;49.65;101463.69;5031282;28;67264;-49
2022/06/28 02:28:42;;;;;;;;;2.50;2.50;;;;;18.39;49.57;101465.47;5029000;28;67529;-49
2022/06/28 02:31:12;;;;;;;;;3.25;1.00;;;;;18.38;49.53;101467.28;5031364;28;45268;-52
2022/06/28 02:33:38;;;;;;;;;2.75;1.50;;;;;18.38;49.99;101466.44;5035193;28;45320;-52
2022/06/28 02:41:32;;;;;;;;;2.25;2.00;;;;;18.34;49.70;101462.19;5037661;28;45348;-50
2022/06/28 02:43:57;;;;;;;;;2.00;1.00;;;;;18.35;49.68;101461.28;5036126;28;45417;-49
2022/06/28 02:46:23;;;;;;;;;2.00;2.00;;;;;18.34;49.94;101459.53;5032316;28;66899;-50
2022/06/28 02:48:48;;;;;;;;;1.50;1.50;;;;;18.32;49.35;101464.91;5035537;28;45375;-51
2022/06/28 02:51:14;;;;;;;;;2.00;0.50;;;;;18.31;49.71;101463.22;5032208;28;45347;-51
2022/06/28 02:53:39;;;;;;;;;1.75;1.75;;;;;18.30;49.88;101465.94;5035027;28;45411;-48
2022/06/28 02:56:05;;;;;;;;;2.50;1.00;;;;;18.29;49.08;101469.50;5029298;28;75701;-53
2022/06/28 02:58:30;;;;;;;;;2.50;1.00;;;;;18.26;49.71;101467.00;5037734;28;45421;-52
2022/06/28 03:00:56;;;;;;;;;1.50;1.00;;;;;18.24;49.72;101468.84;5034574;28;45237;-50
2022/06/28 03:03:21;;;;;;;;;1.25;1.00;;;;;18.20;50.13;101473.44;5032256;28;70051;-51
2022/06/28 03:05:46;;;;;;;;;2.75;1.00;;;;;18.18;49.97;101470.00;5037370;28;55033;-49
2022/06/28 03:08:12;;;;;;;;;2.00;2.00;;;;;18.17;50.23;101468.31;5035798;28;45467;-50
2022/06/28 03:10:38;;;;;;;;;3.00;1.75;;;;;18.16;50.47;101469.22;5038415;28;45831;-54
2022/06/28 03:13:03;;;;;;;;;2.75;1.00;;;;;18.15;49.72;101473.66;5031120;28;45428;-52
2022/06/28 03:15:28;;;;;;;;;2.00;1.75;;;;;18.14;50.09;101466.66;5028635;28;45522;-50
2022/06/28 03:17:54;;;;;;;;;1.25;1.25;;;;;18.14;50.24;101473.75;5028694;28;45450;-52
2022/06/28 03:20:19;;;;;;;;;2.00;0.75;;;;;18.13;50.30;101472.88;5036191;28;45323;-52
2022/06/28 03:22:45;;;;;;;;;4.00;1.00;;;;;18.13;50.01;101477.31;5034330;28;64672;-53
2022/06/28 03:25:10;;;;;;;;;1.00;0.75;;;;;18.09;50.20;101462.50;5034657;28;45476;-48
2022/06/28 03:27:36;;;;;;;;;4.00;1.00;;;;;18.10;50.35;101465.09;5026367;28;46148;-50
2022/06/28 03:30:03;;;;;;;;;1.00;1.00;;;;;18.09;49.97;101462.50;5035232;28;45502;-49
2022/06/28 03:32:28;;;;;;;;;2.50;1.00;;;;;18.09;50.36;101463.34;5029095;28;45305;-54
2022/06/28 03:34:54;;;;;;;;;1.00;1.00;;;;;18.08;50.43;101466.06;5032010;28;46180;-53
2022/06/28 03:37:19;;;;;;;;;1.00;1.00;;;;;18.08;50.71;101468.72;5032110;28;64627;-50
2022/06/28 03:39:44;;;;;;;;;8.00;2.00;;;;;18.08;50.06;101466.94;5034974;28;58353;-50
2022/06/28 03:42:10;;;;;;;;;1.75;1.75;;;;;18.07;50.46;101464.38;5034612;28;45465;-48
2022/06/28 03:44:35;;;;;;;;;5.50;2.00;;;;;18.06;50.52;101454.69;5033872;28;70868;-49
2022/06/28 03:47:01;;;;;;;;;2.00;2.00;;;;;18.05;50.69;101479.47;5036649;28;45498;-52
2022/06/28 03:49:26;;;;;;;;;3.00;1.25;;;;;18.02;50.28;101460.16;5031621;28;45352;-48
2022/06/28 03:51:51;;;;;;;;;1.25;1.00;;;;;18.04;50.71;101462.69;5032966;28;45446;-49
2022/06/28 03:54:17;;;;;;;;;1.50;1.50;;;;;18.05;50.61;101475.03;5033699;28;46288;-53
2022/06/28 03:56:42;;;;;;;;;4.50;2.00;;;;;18.07;50.83;101473.16;5028683;28;45445;-52
2022/06/28 03:59:07;;;;;;;;;2.25;1.00;;;;;18.07;50.53;101481.09;5035126;28;64933;-53
2022/06/28 04:01:33;;;;;;;;;2.00;1.00;;;;;18.07;50.36;101478.47;5031851;28;70972;-53
2022/06/28 04:03:58;;;;;;;;;1.00;1.00;;;;;18.08;50.35;101477.53;5034298;28;46055;-49
2022/06/28 04:06:23;;;;;;;;;4.25;1.50;;;;;18.09;50.03;101479.25;5035470;28;66135;-49
2022/06/28 04:08:49;;;;;;;;;2.00;1.00;;;;;18.08;50.20;101479.31;5037947;28;62850;-52
2022/06/28 04:11:14;;;;;;;;;2.50;1.00;;;;;18.09;50.05;101484.53;5038460;28;73180;-50
2022/06/28 04:13:41;;;;;;;;;4.50;3.00;;;;;18.09;50.39;101486.34;5033281;28;62639;-52
2022/06/28 04:16:06;;;;;;;;;3.50;2.50;;;;;18.07;50.17;101474.97;5037849;28;46779;-54
2022/06/28 04:18:32;;;;;;;;;2.00;2.00;;;;;18.06;49.63;101478.53;5031200;28;45608;-51
2022/06/28 04:20:58;;;;;;;;;1.75;1.50;;;;;18.05;50.08;101484.78;5037545;28;45379;-54
2022/06/28 04:23:23;;;;;;;;;6.00;2.00;;;;;18.03;50.38;101484.84;5038215;28;47802;-49
2022/06/28 04:25:49;;;;;;;;;4.75;3.00;;;;;18.02;50.04;101483.09;5032263;28;53446;-51
2022/06/28 04:28:14;;;;;;;;;5.00;2.75;;;;;18.02;50.49;101480.47;5034288;28;45387;-54
2022/06/28 04:30:39;;;;;;;;;1.25;1.25;;;;;18.01;50.32;101484.91;5033660;28;70717;-49
2022/06/28 04:33:05;;;;;;;;;1.75;1.75;;;;;18.01;50.74;101490.19;5034657;28;70936;-54
2022/06/28 04:35:30;;;;;;;;;4.00;3.00;;;;;18.02;50.28;101499.00;5031893;28;72274;-52
2022/06/28 04:37:55;;;;;;;;;2.00;2.00;;;;;18.03;50.60;101490.13;5038041;28;67128;-52
2022/06/28 04:40:21;;;;;;;;;3.25;1.00;;;;;18.05;50.20;101488.28;5018621;28;68499;-54
2022/06/28 04:42:46;;;;;;;;;2.75;2.00;;;;;18.07;50.30;101490.84;5027538;28;45954;-50
2022/06/28 04:45:11;;;;;;;;;2.75;1.25;;;;;18.08;50.34;101496.09;5039716;28;69408;-54
2022/06/28 04:47:37;;;;;;;;;2.25;1.75;;;;;18.07;50.41;101485.56;5036071;28;59839;-49
2022/06/28 04:50:02;;;;;;;;;4.25;2.75;;;;;18.09;50.33;101495.13;5035951;28;45177;-50
2022/06/28 04:52:28;;;;;;;;;1.50;1.00;;;;;18.14;50.27;101492.28;5030750;28;47434;-52
2022/06/28 04:54:53;;;;;;;;;3.25;1.50;;;;;18.18;50.37;101493.84;5034056;28;45400;-52
2022/06/28 04:57:19;;;;;;;;;1.00;1.00;;;;;18.21;50.40;101499.00;5032745;28;61537;-52
2022/06/28 04:59:44;;;;;;;;;1.50;1.00;;;;;18.25;50.03;101497.06;5036191;28;45340;-49
2022/06/28 05:02:10;;;;;;;;;1.25;0.75;;;;;18.28;49.73;101489.00;5034982;28;71330;-50
2022/06/28 05:04:35;;;;;;;;;2.00;0.50;;;;;18.31;49.39;101502.94;5034797;28;45507;-52
2022/06/28 05:07:01;;;;;;;;;1.75;1.25;;;;;18.33;48.87;101495.78;5034998;28;45584;-51
2022/06/28 05:09:26;;;;;;;;;1.00;1.00;;;;;18.37;48.84;101499.16;5038600;28;45367;-54
2022/06/28 05:11:51;;;;;;;;;2.25;2.25;;;;;18.42;48.78;101501.59;5022019;28;49459;-49
2022/06/28 05:14:17;;;;;;;;;1.00;1.00;;;;;18.46;48.72;101501.34;5035781;28;45411;-51
2022/06/28 05:16:42;;;;;;;;;5.50;1.50;;;;;18.49;48.84;101506.50;5027729;28;60797;-52
2022/06/28 05:19:07;;;;;;;;;3.00;2.00;;;;;18.52;48.64;101510.78;5035382;28;45550;-52
2022/06/28 05:21:33;;;;;;;;;1.00;1.00;;;;;18.57;48.31;101508.78;5030644;28;64068;-48
2022/06/28 05:23:58;;;;;;;;;3.50;1.50;;;;;18.59;48.25;101510.44;5036167;28;59353;-47
2022/06/28 05:26:25;;;;;;;;;1.00;1.00;;;;;18.65;48.15;101514.59;5037652;28;45251;-48
2022/06/28 05:28:50;;;;;;;;;4.75;1.00;;;;;18.69;47.54;101510.00;5038002;28;45496;-50
2022/06/28 05:31:16;;;;;;;;;2.25;1.25;;;;;18.70;47.74;101509.94;5033741;28;66059;-51
2022/06/28 05:33:41;;;;;;;;;4.00;2.75;;;;;18.73;47.57;101504.47;5034623;28;66823;-49
2022/06/28 05:36:06;;;;;;;;;2.00;2.00;;;;;18.77;47.55;101514.00;5034742;28;66819;-48
2022/06/28 05:38:32;;;;;;;;;1.00;1.00;;;;;18.83;47.41;101502.25;5038062;28;45364;-53
2022/06/28 05:40:57;;;;;;;;;1.25;1.00;;;;;18.90;47.43;101503.66;5032797;28;45391;-49
2022/06/28 05:43:22;;;;;;;;;2.00;1.00;;;;;18.95;47.30;101500.78;5036402;28;65283;-54
2022/06/28 05:45:48;;;;;;;;;1.00;1.00;;;;;19.00;47.58;101504.06;5035563;28;60655;-59
2022/06/28 05:48:13;;;;;;;;;3.25;2.00;;;;;19.03;47.16;101501.25;5031581;28;64928;-58
2022/06/28 05:50:38;;;;;;;;;2.00;2.00;;;;;19.08;47.21;101501.03;5031877;28;45435;-53
2022/06/28 05:53:04;;;;;;;;;1.75;1.00;;;;;19.14;47.01;101498.94;5027921;28;66966;-60
2022/06/28 05:55:30;;;;;;;;;2.00;2.00;;;;;19.20;46.66;101488.94;5034912;28;45649;-61
2022/06/28 05:57:55;;;;;;;;;3.00;2.00;;;;;19.23;47.02;101487.00;5032626;28;45560;-65
2022/06/28 06:00:21;;;;;;;;;2.75;1.25;;;;;19.26;46.68;101494.78;5037054;28;45431;-61
2022/06/28 06:02:46;;;;;;;;;1.00;1.00;;;;;19.27;46.58;101483.22;5033298;28;57239;-59
2022/06/28 06:05:12;;;;;;;;;2.00;1.00;;;;;19.32;46.54;101489.16;5031567;28;47760;-67
2022/06/28 06:07:37;;;;;;;;;1.00;1.00;;;;;19.35;46.33;101488.13;5037643;28;45589;-61
2022/06/28 06:10:03;;;;;;;;;2.25;2.00;;;;;19.40;46.35;101490.56;5036756;28;49656;-67
2022/06/28 06:12:28;;;;;;;;;1.00;1.00;;;;;19.44;46.38;101498.28;5036652;28;45426;-55
2022/06/28 06:14:53;;;;;;;;;4.25;2.00;;;;;19.49;45.74;101504.19;5034217;28;67147;-55
2022/06/28 06:17:19;;;;;;;;;3.00;1.00;;;;;19.54;45.81;101496.00;5033359;28;45378;-52
2022/06/28 06:19:45;;;;;;;;;2.50;1.00;;;;;19.57;45.84;101487.03;5035922;28;46625;-54
2022/06/28 06:22:10;;;;;;;;;1.00;1.00;;;;;19.59;45.70;101483.34;5038288;28;45681;-54
2022/06/28 06:24:36;;;;;;;;;3.00;1.50;;;;;19.62;45.58;101487.63;5034728;28;58458;-52
2022/06/28 06:27:01;;;;;;;;;0.25;0.25;;;;;19.63;45.25;101482.22;5030337;28;69760;-52
2022/06/28 06:29:28;;;;;;;;;2.50;1.00;;;;;19.66;45.34;101491.84;5031252;28;45442;-57
2022/06/28 06:31:53;;;;;;;;;2.25;1.00;;;;;19.68;45.30;101488.16;5033641;28;45775;-50
2022/06/28 06:34:18;;;;;;;;;1.00;1.00;;;;;19.72;45.36;101480.88;5028494;28;45572;-58
2022/06/28 06:36:46;;;;;;;;;2.00;1.00;;;;;19.76;44.79;101485.16;5024167;28;67769;-57
2022/06/28 06:39:12;;;;;;;;;1.50;1.00;;;;;19.80;45.04;101483.19;5034497;28;47169;-58
2022/06/28 06:41:37;;;;;;;;;2.50;1.00;;;;;19.84;44.63;101482.06;5038717;28;45565;-50
2022/06/28 06:44:03;;;;;;;;;1.00;1.00;;;;;19.85;44.85;101463.41;5035696;28;45478;-56
2022/06/28 06:46:29;;;;;;;;;2.00;1.00;;;;;19.93;44.89;101476.25;5025093;28;45356;-54
2022/06/28 06:48:54;;;;;;;;;0.50;0.00;;;;;19.93;44.60;101470.94;5027582;28;45747;-54
2022/06/28 06:51:20;;;;;;;;;2.25;1.00;;;;;19.97;44.34;101474.28;5033526;28;60764;-53
2022/06/28 06:53:45;;;;;;;;;2.00;0.25;;;;;19.98;44.22;101479.50;5033183;28;63871;-52
2022/06/28 06:56:11;;;;;;;;;4.00;1.00;;;;;19.99;43.89;101478.59;5034699;28;70162;-54
2022/06/28 06:58:36;;;;;;;;;1.50;0.00;;;;;20.01;43.95;101476.69;5029685;28;45517;-56
2022/06/28 07:01:02;;;;;;;;;1.00;1.00;;;;;20.05;44.20;101474.72;5033138;28;45395;-56
2022/06/28 07:03:27;;;;;;;;;6.00;0.75;;;;;20.09;43.84;101466.47;5017035;28;45393;-56
2022/06/28 07:05:53;;;;;;;;;2.00;1.75;;;;;20.13;44.25;101471.63;5034071;28;65297;-59
2022/06/28 07:08:19;;;;;;;;;2.25;1.00;;;;;20.18;43.54;101459.81;5033643;28;46105;-58
2022/06/28 07:10:45;;;;;;;;;1.50;1.50;;;;;20.26;43.77;101462.06;5034767;28;45812;-55
2022/06/28 07:13:10;;;;;;;;;0.25;0.25;;;;;20.31;43.74;101462.66;5025814;28;45459;-58
2022/06/28 07:15:35;;;;;;;;;1.00;1.00;;;;;20.35;43.47;101458.88;5035777;28;57643;-58
2022/06/28 07:18:02;;;;;;;;;4.75;2.00;;;;;20.41;43.53;101461.16;5025330;28;46128;-57
2022/06/28 07:20:27;;;;;;;;;1.00;1.00;;;;;20.46;43.63;101459.09;5029764;28;45518;-57
2022/06/28 07:22:52;;;;;;;;;5.50;3.50;;;;;20.53;43.36;101454.28;5025827;28;69079;-57
2022/06/28 07:25:18;;;;;;;;;9.25;2.00;;;;;20.60;43.22;101441.50;5031816;28;68970;-57
2022/06/28 07:27:44;;;;;;;;;13.00;2.50;;;;;20.65;43.27;101436.81;5029769;28;46289;-57
2022/06/28 07:30:10;;;;;;;;;5.00;2.00;;;;;20.71;42.92;101439.09;5037109;28;45274;-57
2022/06/28 07:32:35;;;;;;;;;9.75;4.50;;;;;20.78;43.19;101442.28;5038403;28;45450;-57
2022/06/28 07:35:01;;;;;;;;;1.25;0.00;;;;;20.83;43.03;101440.19;5038634;28;45411;-56
2022/06/28 07:37:26;;;;;;;;;5.50;1.25;;;;;20.92;43.11;101441.47;5030462;28;45282;-57
2022/06/28 07:39:51;;;;;;;;;4.75;2.00;;;;;20.98;42.69;101433.09;5036503;28;64519;-57
2022/06/28 07:42:17;;;;;;;;;3.25;1.00;;;;;21.03;42.79;101421.25;5037101;28;68314;-57
2022/06/28 07:44:42;;;;;;;;;5.75;3.50;;;;;21.10;42.53;101423.53;5040557;28;63308;-56
2022/06/28 07:47:08;;;;;;;;;5.00;3.00;;;;;21.16;42.48;101423.16;5039783;28;46204;-57
2022/06/28 07:52:37;;;;;;;;;3.75;1.00;;;;;21.28;42.71;101419.75;5028874;28;45487;-57
2022/06/28 07:55:05;;;;;;;;;4.00;1.00;;;;;21.31;42.15;101418.72;5037852;28;45234;-57
2022/06/28 07:57:31;;;;;;;;;3.25;1.00;;;;;21.41;42.16;101409.22;5035571;28;46081;-57
2022/06/28 07:59:56;;;;;;;;;2.00;1.75;;;;;21.46;41.96;101400.94;5037105;28;45389;-57
2022/06/28 08:02:23;;;;;;;;;3.75;1.00;;;;;21.53;42.01;101410.28;5037835;28;45272;-57
2022/06/28 08:04:49;;;;;;;;;0.00;0.00;;;;;21.60;42.43;101400.94;5033328;28;45435;-57
2022/06/28 08:07:14;;;;;;;;;4.00;1.25;;;;;21.67;42.36;101414.72;5039685;28;45484;-56
2022/06/28 08:09:39;;;;;;;;;2.00;1.50;;;;;21.71;41.73;101408.25;5039499;28;45267;-57
2022/06/28 08:12:06;;;;;;;;;0.75;0.75;;;;;21.78;42.10;101402.47;5026837;28;45261;-57
2022/06/28 08:14:31;;;;;;;;;1.50;1.25;;;;;21.85;42.10;101400.25;5039054;28;45700;-57
2022/06/28 08:16:56;;;;;;;;;1.00;1.00;;;;;21.92;41.75;101398.03;5023085;28;60605;-57
2022/06/28 08:19:22;;;;;;;;;1.00;1.00;;;;;21.97;42.16;101395.94;5015383;28;45444;-57
2022/06/28 08:21:49;;;;;;;;;3.25;1.50;;;;;21.97;41.89;101378.16;5031847;28;45338;-57
2022/06/28 08:24:14;;;;;;;;;5.25;2.00;;;;;22.09;41.72;101383.63;5039217;28;46393;-57
2022/06/28 08:26:42;;;;;;;;;3.50;2.75;;;;;22.15;41.45;101388.53;5037051;28;46302;-56
2022/06/28 08:29:12;;;;;;;;;1.50;1.00;;;;;22.21;41.88;101388.16;5038076;28;45423;-56
2022/06/28 08:31:38;;;;;;;;;2.00;2.00;;;;;22.29;41.57;101380.56;5040738;28;45521;-56
2022/06/28 08:34:04;;;;;;;;;4.00;2.25;;;;;22.37;41.78;101380.88;5034266;28;45438;-56
2022/06/28 08:36:29;;;;;;;;;6.50;3.00;;;;;22.46;41.26;101381.25;5027833;28;46139;-56
2022/06/28 08:38:56;;;;;;;;;13.50;4.00;;;;;22.48;40.97;101377.50;5033022;28;45430;-56
2022/06/28 08:41:22;;;;;;;;;2.00;2.00;;;;;22.61;40.51;101371.34;5029170;28;45430;-57
2022/06/28 08:43:48;;;;;;;;;2.00;2.00;;;;;22.64;39.83;101369.31;5035840;28;45568;-57
2022/06/28 08:46:14;;;;;;;;;49.25;16.25;;;;;22.67;40.12;101371.78;5029216;28;51792;-57
2022/06/28 08:48:42;;;;;;;;;13.00;4.25;;;;;22.78;40.00;101362.19;5039780;28;45504;-57
2022/06/28 08:51:09;;;;;;;;;9.75;5.00;;;;;22.85;40.34;101363.47;5029504;28;45451;-57
2022/06/28 08:53:36;;;;;;;;;5.00;3.00;;;;;22.89;39.15;101360.47;5032523;28;45414;-57
2022/06/28 08:56:01;;;;;;;;;5.75;3.00;;;;;22.84;39.35;101356.41;5035820;28;45533;-57
2022/06/28 08:58:28;;;;;;;;;5.00;1.00;;;;;22.89;39.17;101354.28;5040352;28;45419;-57
2022/06/28 09:00:53;;;;;;;;;2.00;1.00;;;;;22.98;39.56;101345.63;5028268;28;45312;-57
2022/06/28 09:03:19;;;;;;;;;3.50;1.50;;;;;23.07;39.25;101345.06;5027045;28;45371;-56
2022/06/28 09:05:45;;;;;;;;;5.25;2.75;;;;;23.16;39.42;101337.34;5029674;28;45328;-58
2022/06/28 09:08:10;;;;;;;;;3.75;3.00;;;;;23.21;36.96;101340.53;5025999;28;45402;-58
2022/06/28 09:10:36;;;;;;;;;2.00;1.50;;;;;23.25;38.21;101331.38;5039374;28;45371;-57
2022/06/28 09:13:06;;;;;;;;;1.00;1.00;;;;;23.29;38.22;101330.19;5031604;28;45387;-58
2022/06/28 09:15:55;;;;;;;;;2.00;2.00;;;;;23.39;37.99;101333.03;5038607;28;45438;-57
2022/06/28 09:18:27;;;;;;;;;1.25;1.25;;;;;23.44;37.46;101320.19;5028525;28;45320;-57
2022/06/28 09:20:55;;;;;;;;;2.00;2.00;;;;;23.45;36.36;101319.25;5035088;28;45401;-57
2022/06/28 09:23:25;;;;;;;;;0.00;0.00;;;;;23.49;37.58;101313.56;5035086;28;45386;-58
2022/06/28 09:25:52;;;;;;;;;1.50;1.50;;;;;23.59;37.08;101311.09;5037157;28;45517;-58
2022/06/28 09:28:29;;;;;;;;;4.25;2.00;;;;;23.70;37.20;101308.47;5035102;28;45743;-57
2022/06/28 09:31:16;;;;;;;;;4.00;2.00;;;;;23.84;37.06;101309.31;5037645;28;45410;-57
2022/06/28 09:33:42;;;;;;;;;4.00;2.00;;;;;23.94;36.30;101307.66;5038540;28;45410;-58
2022/06/28 09:36:13;;;;;;;;;2.00;2.00;;;;;24.07;36.53;101303.09;5039113;28;46449;-57
2022/06/28 09:38:39;;;;;;;;;3.75;2.75;;;;;24.19;36.27;101298.66;5034968;28;45863;-57
2022/06/28 09:41:04;;;;;;;;;3.75;3.00;;;;;24.35;36.08;101303.69;5034115;28;45417;-58
2022/06/28 09:43:32;;;;;;;;;3.00;2.00;;;;;24.75;35.57;101289.06;5039185;28;48297;-57
2022/06/28 09:45:58;;;;;;;;;2.50;2.50;;;;;25.45;35.35;101293.34;5028587;28;46155;-58
2022/06/28 09:48:23;;;;;;;;;1.50;0.50;;;;;26.50;32.45;101287.34;5034652;28;53893;-58
2022/06/28 09:50:49;;;;;;;;;3.00;2.00;;;;;27.87;33.15;101295.94;5030110;28;69236;-58
2022/06/28 09:53:15;;;;;;;;;2.25;0.25;;;;;29.38;31.31;101279.06;5034699;28;45495;-58
2022/06/28 09:55:42;;;;;;;;;2.00;1.00;;;;;30.81;30.07;101281.63;5036162;28;46097;-58
2022/06/28 09:58:08;;;;;;;;;1.50;0.50;;;;;32.22;28.14;101285.59;5039742;28;45709;-58
2022/06/28 10:00:35;;;;;;;;;14.75;6.25;;;;;33.57;27.33;101275.66;5037823;28;45368;-58
2022/06/28 10:03:01;;;;;;;;;1.25;0.00;;;;;34.68;26.26;101272.53;5026727;28;45309;-58
2022/06/28 10:05:28;;;;;;;;;1.00;1.00;;;;;35.64;24.38;101272.47;5030306;28;46387;-59
2022/06/28 10:07:54;;;;;;;;;0.00;0.00;;;;;36.57;23.04;101267.84;5031090;28;45737;-59
2022/06/28 10:10:22;;;;;;;;;1.00;1.00;;;;;37.54;21.31;101270.56;5030629;28;59324;-58
2022/06/28 10:15:43;;;;;;;;;1.50;1.00;;;;;39.68;20.60;101262.75;5038049;28;45456;-58
2022/06/28 10:18:20;;;;;;;;;0.25;0.00;;;;;40.56;16.27;101249.97;5030020;28;45680;-58
2022/06/28 10:20:49;;;;;;;;;1.00;1.00;;;;;41.07;16.92;101250.66;5035047;28;45356;-59
2022/06/28 10:23:34;;;;;;;;;3.75;0.75;;;;;41.72;17.77;101255.41;5037016;28;45319;-59
2022/06/28 10:26:05;;;;;;;;;19.00;15.50;;;;;42.62;17.16;101245.16;5041192;28;46509;-57
2022/06/28 10:29:00;;;;;;;;;16.25;13.50;;;;;43.43;17.68;101245.94;5040149;28;45307;-57
2022/06/28 10:31:25;;;;;;;;;4.50;4.50;;;;;43.85;14.94;101244.75;5038686;28;45267;-57
2022/06/28 10:34:03;;;;;;;;;1.75;1.75;;;;;44.07;15.83;101232.91;5031688;28;45627;-58
2022/06/28 10:36:44;;;;;;;;;3.75;0.75;;;;;44.40;15.75;101232.03;5033770;28;46309;-58
2022/06/28 10:39:11;;;;;;;;;3.00;2.75;;;;;44.71;15.21;101230.53;5025472;28;45637;-58
2022/06/28 10:41:48;;;;;;;;;1.25;1.25;;;;;44.89;13.46;101236.75;5028194;28;45253;-58
2022/06/28 10:44:20;;;;;;;;;1.00;1.00;;;;;45.02;14.41;101241.09;5018668;28;45503;-59
2022/06/28 10:47:03;;;;;;;;;3.25;2.50;;;;;45.42;13.45;101226.00;5027092;28;45381;-58
2022/06/28 10:49:46;;;;;;;;;0.00;0.00;;;;;45.88;12.29;101222.78;5035746;28;45272;-58
2022/06/28 10:52:16;;;;;;;;;0.00;0.00;;;;;45.90;11.57;101224.22;5031349;28;45347;-58
2022/06/28 10:54:51;;;;;;;;;0.50;0.50;;;;;46.13;13.08;101223.00;5036603;28;45433;-58
2022/06/28 10:57:27;;;;;;;;;3.00;2.00;;;;;46.64;13.50;101227.09;5038356;28;45502;-58
2022/06/28 10:59:56;;;;;;;;;4.25;1.00;;;;;47.16;9.58;101223.38;5033684;28;45470;-59
2022/06/28 11:02:24;;;;;;;;;5.25;4.25;;;;;47.24;12.28;101217.28;5023071;28;45406;-59
2022/06/28 11:05:06;;;;;;;;;3.00;3.00;;;;;47.60;12.47;101214.53;5030483;28;45303;-59
2022/06/28 11:07:34;;;;;;;;;1.75;1.00;;;;;47.62;10.21;101215.09;5026992;28;46385;-59
2022/06/28 11:09:59;;;;;;;;;2.00;1.50;;;;;47.07;12.47;101212.00;5032299;28;45296;-59
2022/06/28 11:12:27;;;;;;;;;2.00;0.00;;;;;46.70;11.46;101199.16;5026247;28;45276;-59
2022/06/28 11:15:13;;;;;;;;;0.50;0.00;;;;;46.70;12.34;101193.63;5040038;28;45424;-59
2022/06/28 11:17:40;;;;;;;;;6.00;5.75;;;;;46.52;12.41;101194.94;5033048;28;46122;-59
2022/06/28 11:20:07;;;;;;;;;4.00;3.50;;;;;46.61;12.49;101181.41;5035184;28;45354;-59
2022/06/28 11:22:47;;;;;;;;;1.00;0.00;;;;;46.97;11.45;101187.03;5038488;28;45325;-59
2022/06/28 11:25:24;;;;;;;;;2.25;2.00;;;;;47.32;12.24;101185.44;5036256;28;45222;-59
2022/06/28 11:27:55;;;;;;;;;3.50;2.00;;;;;47.67;11.42;101192.91;5033576;28;45369;-59
2022/06/28 11:30:23;;;;;;;;;6.50;2.25;;;;;48.05;11.43;101214.75;5041997;28;45345;-59
2022/06/28 11:32:50;;;;;;;;;3.00;1.00;;;;;48.22;10.32;101203.28;5043712;28;45466;-59
2022/06/28 11:35:19;;;;;;;;;0.75;0.75;;;;;48.11;10.94;101208.06;5042948;28;45317;-59